createdAt,value
2023-04-19T00:01:25.362Z,12.85
2023-04-19T00:03:52.070Z,12.70
2023-04-19T00:06:18.753Z,13.88
2023-04-19T00:08:45.270Z,11.68
2023-04-19T00:11:11.751Z,12.85
2023-04-19T00:13:38.384Z,11.93
2023-04-19T00:16:05.542Z,12.70
2023-04-19T00:18:31.997Z,13.50
2023-04-19T00:20:58.575Z,13.32
2023-04-19T00:23:25.902Z,12.45
2023-04-19T00:25:52.496Z,13.32
2023-04-19T00:28:19.019Z,12.23
2023-04-19T00:30:45.606Z,12.98
2023-04-19T00:33:14.897Z,14.18
2023-04-19T00:35:44.469Z,14.23
2023-04-19T00:38:11.005Z,13.85
2023-04-19T00:40:37.883Z,13.85
2023-04-19T00:43:04.356Z,14.43
2023-04-19T00:45:31.230Z,14.32
2023-04-19T00:47:57.714Z,14.65
2023-04-19T00:50:24.274Z,15.02
2023-04-19T00:52:50.775Z,14.90
2023-04-19T00:55:17.226Z,15.25
2023-04-19T00:57:43.716Z,14.90
2023-04-19T01:00:10.769Z,14.80
2023-04-19T01:02:37.366Z,15.95
2023-04-19T01:05:04.326Z,15.63
2023-04-19T01:07:30.831Z,15.40
2023-04-19T01:09:57.463Z,16.23
2023-04-19T01:12:24.014Z,15.73
2023-04-19T01:14:50.655Z,16.52
2023-04-19T01:17:18.773Z,15.90
2023-04-19T01:19:45.942Z,15.38
2023-04-19T01:22:18.360Z,15.95
2023-04-19T01:24:44.852Z,16.42
2023-04-19T01:27:11.593Z,16.90
2023-04-19T01:29:38.108Z,17.05
2023-04-19T01:32:04.813Z,17.90
2023-04-19T01:34:31.351Z,19.13
2023-04-19T01:36:57.866Z,19.00
2023-04-19T01:39:26.046Z,17.65
2023-04-19T01:41:52.521Z,19.80
2023-04-19T01:44:19.014Z,19.40
2023-04-19T01:46:45.691Z,19.38
2023-04-19T01:49:12.168Z,20.15
2023-04-19T01:51:38.985Z,17.70
2023-04-19T01:54:05.510Z,18.95
2023-04-19T01:56:32.985Z,17.92
2023-04-19T01:58:59.497Z,19.38
2023-04-19T02:01:26.078Z,17.55
2023-04-19T02:03:52.849Z,19.42
2023-04-19T02:06:19.571Z,18.83
2023-04-19T02:08:46.089Z,19.52
2023-04-19T02:11:16.173Z,18.15
2023-04-19T02:13:42.886Z,20.05
2023-04-19T02:16:09.381Z,21.25
2023-04-19T02:18:38.426Z,19.80
2023-04-19T02:21:05.853Z,19.27
2023-04-19T02:23:32.504Z,21.10
2023-04-19T02:25:58.974Z,20.42
2023-04-19T02:28:25.512Z,22.17
2023-04-19T02:30:51.993Z,20.05
2023-04-19T02:33:18.484Z,18.65
2023-04-19T02:35:44.992Z,20.52
2023-04-19T02:38:11.437Z,18.65
2023-04-19T02:40:37.890Z,17.10
2023-04-19T02:43:04.832Z,21.75
2023-04-19T02:45:31.535Z,19.42
2023-04-19T02:47:59.440Z,19.55
2023-04-19T02:50:26.995Z,21.48
2023-04-19T02:52:53.529Z,22.83
2023-04-19T02:55:19.980Z,23.50
2023-04-19T02:57:46.798Z,23.50
2023-04-19T03:00:13.933Z,23.38
2023-04-19T03:02:41.512Z,21.35
2023-04-19T03:05:08.801Z,22.83
2023-04-19T03:07:35.601Z,21.65
2023-04-19T03:10:02.147Z,21.98
2023-04-19T03:12:28.748Z,20.23
2023-04-19T03:14:55.234Z,21.05
2023-04-19T03:17:21.696Z,22.48
2023-04-19T03:19:48.197Z,25.13
2023-04-19T03:22:14.635Z,27.15
2023-04-19T03:24:41.112Z,26.25
2023-04-19T03:27:07.593Z,26.70
2023-04-19T03:29:34.078Z,24.90
2023-04-19T03:32:00.737Z,22.88
2023-04-19T03:34:27.338Z,22.65
2023-04-19T03:36:53.787Z,22.83
2023-04-19T03:39:20.296Z,24.20
2023-04-19T03:41:46.774Z,24.95
2023-04-19T03:44:13.461Z,23.38
2023-04-19T03:46:40.231Z,24.27
2023-04-19T03:49:06.727Z,24.42
2023-04-19T03:51:33.209Z,26.23
2023-04-19T03:54:00.296Z,25.98
2023-04-19T03:56:26.810Z,28.35
2023-04-19T03:58:53.320Z,28.70
2023-04-19T04:01:20.602Z,28.10
2023-04-19T04:03:48.305Z,22.02
2023-04-19T04:06:15.297Z,24.52
2023-04-19T04:08:41.769Z,26.55
2023-04-19T04:11:08.392Z,24.05
2023-04-19T04:13:34.878Z,25.35
2023-04-19T04:16:01.409Z,24.77
2023-04-19T04:18:28.629Z,27.83
2023-04-19T04:20:55.544Z,25.17
2023-04-19T04:23:22.041Z,27.08
2023-04-19T04:25:50.743Z,26.50
2023-04-19T04:28:17.226Z,25.58
2023-04-19T04:30:44.913Z,31.00
2023-04-19T04:33:11.980Z,29.25
2023-04-19T04:35:38.519Z,26.60
2023-04-19T04:38:14.180Z,29.60
2023-04-19T04:40:55.075Z,29.13
2023-04-19T04:43:22.787Z,25.63
2023-04-19T04:45:49.334Z,29.85
2023-04-19T04:48:16.167Z,27.83
2023-04-19T04:50:42.672Z,27.48
2023-04-19T04:53:11.097Z,28.33
2023-04-19T04:55:39.305Z,25.30
2023-04-19T04:58:05.809Z,21.88
2023-04-19T05:00:32.477Z,30.45
2023-04-19T05:02:59.434Z,27.40
2023-04-19T05:05:26.164Z,31.10
2023-04-19T05:07:52.611Z,30.42
2023-04-19T05:10:19.238Z,30.08
2023-04-19T05:12:45.730Z,28.42
2023-04-19T05:15:12.181Z,28.38
2023-04-19T05:17:38.724Z,31.83
2023-04-19T05:20:05.962Z,30.13
2023-04-19T05:22:32.428Z,28.58
2023-04-19T05:24:58.918Z,28.65
2023-04-19T05:27:25.759Z,28.27
2023-04-19T05:29:52.514Z,27.45
2023-04-19T05:32:19.269Z,28.40
2023-04-19T05:34:45.849Z,28.80
2023-04-19T05:37:12.303Z,29.60
2023-04-19T05:39:38.815Z,29.10
2023-04-19T05:42:05.279Z,27.02
2023-04-19T05:44:31.752Z,28.25
2023-04-19T05:46:58.430Z,27.45
2023-04-19T05:49:24.906Z,27.55
2023-04-19T05:51:51.394Z,25.98
2023-04-19T05:54:18.622Z,25.75
2023-04-19T05:56:45.378Z,24.52
2023-04-19T05:59:13.497Z,24.25
2023-04-19T06:01:40.161Z,22.73
2023-04-19T06:04:06.881Z,23.13
2023-04-19T06:06:33.518Z,23.85
2023-04-19T06:09:00.085Z,21.17
2023-04-19T06:11:31.734Z,19.17
2023-04-19T06:14:06.353Z,19.67
2023-04-19T06:16:33.012Z,19.10
2023-04-19T06:18:59.554Z,20.52
2023-04-19T06:21:26.893Z,19.42
2023-04-19T06:23:53.371Z,20.15
2023-04-19T06:26:20.001Z,19.52
2023-04-19T06:28:46.470Z,20.38
2023-04-19T06:31:12.930Z,22.05
2023-04-19T06:33:39.531Z,22.20
2023-04-19T06:36:06.302Z,20.48
2023-04-19T06:38:32.786Z,19.92
2023-04-19T06:40:59.238Z,19.05
2023-04-19T06:43:25.779Z,19.85
2023-04-19T06:45:59.124Z,19.70
2023-04-19T06:48:26.311Z,19.13
2023-04-19T06:50:52.810Z,18.40
2023-04-19T06:53:19.272Z,18.15
2023-04-19T06:55:46.559Z,17.75
2023-04-19T06:58:13.043Z,17.42
2023-04-19T07:00:39.554Z,17.38
2023-04-19T07:03:06.277Z,16.13
2023-04-19T07:05:32.819Z,16.00
2023-04-19T07:07:59.614Z,16.25
2023-04-19T07:10:26.126Z,15.40
2023-04-19T07:12:52.629Z,15.30
2023-04-19T07:15:19.135Z,16.77
2023-04-19T07:17:46.004Z,16.13
2023-04-19T07:20:12.500Z,16.55
2023-04-19T07:22:38.956Z,16.90
2023-04-19T07:25:05.816Z,15.98
2023-04-19T07:27:32.335Z,16.02
2023-04-19T07:29:58.833Z,16.58
2023-04-19T07:32:25.355Z,16.83
2023-04-19T07:34:51.878Z,17.45
2023-04-19T07:37:18.449Z,17.58
2023-04-19T07:39:44.935Z,16.80
2023-04-19T07:42:11.462Z,17.30
2023-04-19T07:44:37.954Z,17.40
2023-04-19T07:47:05.907Z,19.05
2023-04-19T07:49:34.219Z,19.42
2023-04-19T07:52:04.048Z,19.80
2023-04-19T07:54:31.431Z,21.05
2023-04-19T07:56:58.988Z,19.92
2023-04-19T07:59:25.698Z,22.25
2023-04-19T08:01:52.319Z,20.75
2023-04-19T08:04:20.631Z,21.08
2023-04-19T08:06:47.651Z,22.52
2023-04-19T08:09:14.578Z,21.25
2023-04-19T08:11:41.170Z,21.00
2023-04-19T08:14:28.180Z,19.13
2023-04-19T08:19:23.568Z,19.50
2023-04-19T08:21:50.043Z,19.92
2023-04-19T08:24:16.907Z,21.05
2023-04-19T08:26:43.657Z,18.75
2023-04-19T08:29:10.165Z,19.02
2023-04-19T08:31:36.752Z,17.63
2023-04-19T08:34:03.920Z,17.33
2023-04-19T08:36:39.169Z,28.98
2023-04-19T08:39:12.568Z,19.63
2023-04-19T08:41:52.921Z,16.88
2023-04-19T08:44:35.931Z,17.75
2023-04-19T08:47:03.096Z,17.90
2023-04-19T08:49:29.580Z,17.83
2023-04-19T08:51:57.819Z,18.75
2023-04-19T08:54:24.297Z,19.42
2023-04-19T08:56:51.420Z,18.63
2023-04-19T08:59:18.606Z,18.05
2023-04-19T09:01:46.196Z,17.17
2023-04-19T09:06:42.460Z,19.20
2023-04-19T09:09:28.774Z,18.55
2023-04-19T09:12:01.920Z,19.48
2023-04-19T09:14:28.953Z,27.55
2023-04-19T09:17:17.094Z,22.05
2023-04-19T09:19:47.770Z,17.98
2023-04-19T09:22:14.709Z,18.90
2023-04-19T09:27:12.269Z,18.48
2023-04-19T09:29:38.991Z,23.05
2023-04-19T09:32:06.090Z,19.13
2023-04-19T09:34:32.676Z,15.77
2023-04-19T09:37:18.939Z,16.70
2023-04-19T09:39:58.473Z,16.00
2023-04-19T09:42:45.282Z,15.93
2023-04-19T09:47:41.149Z,15.75
2023-04-19T09:50:21.885Z,16.10
2023-04-19T09:52:51.017Z,16.33
2023-04-19T09:55:26.789Z,14.70
2023-04-19T09:57:53.944Z,14.02
2023-04-19T10:00:23.680Z,13.90
2023-04-19T10:02:55.896Z,17.42
2023-04-19T10:05:23.096Z,15.95
2023-04-19T10:07:50.009Z,12.48
2023-04-19T10:10:21.429Z,13.20
2023-04-19T10:15:21.445Z,14.60
2023-04-19T10:17:48.379Z,16.13
2023-04-19T10:20:24.287Z,16.10
2023-04-19T10:22:51.247Z,17.38
2023-04-19T10:25:17.946Z,16.85
2023-04-19T10:27:49.036Z,18.20
2023-04-19T10:30:19.611Z,18.13
2023-04-19T10:32:52.003Z,18.48
2023-04-19T10:35:26.427Z,18.20
2023-04-19T10:38:16.287Z,18.60
2023-04-19T10:40:56.627Z,17.20
2023-04-19T10:43:23.454Z,18.98
2023-04-19T10:45:50.034Z,19.00
2023-04-19T10:48:33.261Z,18.73
2023-04-19T10:51:11.283Z,19.23
2023-04-19T10:53:50.922Z,21.20
2023-04-19T10:57:02.827Z,17.80
2023-04-19T10:59:40.303Z,19.05
2023-04-19T11:02:21.900Z,15.73
2023-04-19T11:04:51.519Z,18.45
2023-04-19T11:07:23.832Z,18.48
2023-04-19T11:09:51.762Z,20.65
2023-04-19T11:12:19.249Z,15.90
2023-04-19T11:14:46.767Z,17.35
2023-04-19T11:17:19.655Z,14.10
2023-04-19T11:19:55.995Z,15.27
2023-04-19T11:22:45.956Z,13.27
2023-04-19T11:25:13.815Z,11.07
2023-04-19T11:27:41.026Z,11.82
2023-04-19T11:30:14.583Z,11.82
2023-04-19T11:32:48.302Z,12.15
2023-04-19T11:35:14.987Z,11.52
2023-04-19T11:37:41.571Z,10.43
2023-04-19T11:40:09.122Z,10.00
2023-04-19T11:42:36.072Z,10.27
2023-04-19T11:45:02.906Z,11.13
2023-04-19T11:47:29.457Z,9.75
2023-04-19T11:49:58.701Z,9.20
2023-04-19T11:52:25.904Z,10.45
2023-04-19T11:54:52.898Z,10.13
2023-04-19T11:57:29.892Z,9.73
2023-04-19T12:00:07.671Z,10.98
2023-04-19T12:02:40.254Z,9.50
2023-04-19T12:05:11.620Z,9.68
2023-04-19T12:07:38.826Z,10.52
2023-04-19T12:10:10.416Z,10.85
2023-04-19T12:12:37.866Z,10.48
2023-04-19T12:15:06.020Z,10.43
2023-04-19T12:17:32.599Z,10.60
2023-04-19T12:19:59.118Z,9.80
2023-04-19T12:22:25.597Z,10.32
2023-04-19T12:24:53.511Z,9.95
2023-04-19T12:27:20.140Z,11.38
2023-04-19T12:29:46.652Z,11.30
2023-04-19T12:32:14.846Z,9.93
2023-04-19T12:34:41.805Z,9.80
2023-04-19T12:37:08.389Z,10.93
2023-04-19T12:39:34.901Z,9.77
2023-04-19T12:42:01.421Z,9.20
2023-04-19T12:44:27.857Z,9.13
2023-04-19T12:46:57.728Z,9.50
2023-04-19T12:49:24.479Z,9.63
2023-04-19T12:51:50.923Z,10.45
2023-04-19T12:54:17.473Z,9.43
2023-04-19T12:56:43.970Z,8.85
2023-04-19T12:59:11.416Z,9.23
2023-04-19T13:01:38.490Z,9.30
2023-04-19T13:04:05.205Z,9.55
2023-04-19T13:06:32.053Z,9.20
2023-04-19T13:09:01.130Z,8.77
2023-04-19T13:11:27.961Z,9.13
2023-04-19T13:13:54.499Z,9.52
2023-04-19T13:16:21.417Z,8.88
2023-04-19T13:18:48.017Z,9.50
2023-04-19T13:21:14.569Z,8.57
2023-04-19T13:23:43.040Z,8.80
2023-04-19T13:26:09.503Z,8.85
2023-04-19T13:28:36.073Z,8.57
2023-04-19T13:31:04.082Z,9.45
2023-04-19T13:33:30.568Z,8.85
2023-04-19T13:35:57.070Z,10.15
2023-04-19T13:38:24.934Z,9.60
2023-04-19T13:40:51.464Z,9.90
2023-04-19T13:43:17.930Z,9.20
2023-04-19T13:45:44.495Z,9.77
2023-04-19T13:48:11.016Z,9.40
2023-04-19T13:50:37.563Z,9.77
2023-04-19T13:53:04.104Z,9.02
2023-04-19T13:55:30.568Z,8.63
2023-04-19T13:57:57.034Z,8.60
2023-04-19T14:00:23.955Z,9.20
2023-04-19T14:02:52.385Z,8.10
2023-04-19T14:05:19.321Z,8.35
2023-04-19T14:07:46.292Z,7.43
2023-04-19T14:10:12.741Z,7.20
2023-04-19T14:12:39.197Z,7.45
2023-04-19T14:15:06.165Z,7.47
2023-04-19T14:17:32.711Z,7.57
2023-04-19T14:19:59.229Z,7.85
2023-04-19T14:22:25.930Z,7.68
2023-04-19T14:24:52.477Z,7.28
2023-04-19T14:27:19.270Z,6.97
2023-04-19T14:29:45.881Z,6.93
2023-04-19T14:32:24.868Z,6.80
2023-04-19T14:34:52.912Z,6.38
2023-04-19T14:37:19.466Z,6.53
2023-04-19T14:39:46.114Z,6.30
2023-04-19T14:42:12.654Z,5.80
2023-04-19T14:44:39.529Z,5.97
2023-04-19T14:47:06.029Z,4.95
2023-04-19T14:49:32.544Z,5.13
2023-04-19T14:51:59.012Z,5.65
2023-04-19T14:54:25.593Z,4.78
2023-04-19T14:56:52.789Z,5.15
2023-04-19T14:59:19.271Z,4.00
2023-04-19T15:01:45.781Z,4.35
2023-04-19T15:04:12.573Z,3.80
2023-04-19T15:06:39.248Z,3.92
2023-04-19T15:09:05.717Z,4.10
2023-04-19T15:11:32.900Z,4.20
2023-04-19T15:13:59.365Z,4.43
2023-04-19T15:16:25.993Z,4.25
2023-04-19T15:18:52.521Z,4.65
2023-04-19T15:21:19.587Z,4.47
2023-04-19T15:23:46.136Z,4.63
2023-04-19T15:26:12.702Z,4.22
2023-04-19T15:28:39.225Z,4.47
2023-04-19T15:31:06.941Z,5.18
2023-04-19T15:33:34.594Z,4.60
2023-04-19T15:36:01.360Z,4.75
2023-04-19T15:38:29.472Z,4.55
2023-04-19T15:40:56.678Z,4.72
2023-04-19T15:43:23.526Z,5.03
2023-04-19T15:45:50.102Z,4.55
2023-04-19T15:48:16.772Z,4.00
2023-04-19T15:50:44.344Z,3.50
2023-04-19T15:53:10.904Z,3.17
2023-04-19T15:55:37.358Z,2.78
2023-04-19T15:58:05.210Z,2.65
2023-04-19T16:00:31.722Z,3.22
2023-04-19T16:02:58.470Z,3.33
2023-04-19T16:05:25.275Z,3.42
2023-04-19T16:08:05.290Z,4.13
2023-04-19T16:10:31.867Z,3.92
2023-04-19T16:12:58.363Z,3.40
2023-04-19T16:15:24.912Z,3.72
2023-04-19T16:17:52.242Z,3.70
2023-04-19T16:20:19.040Z,3.50
2023-04-19T16:22:45.560Z,3.92
2023-04-19T16:25:12.868Z,4.50
2023-04-19T16:27:43.209Z,4.95
2023-04-19T16:30:11.118Z,3.70
2023-04-19T16:32:37.721Z,3.10
2023-04-19T16:35:05.481Z,2.80
2023-04-19T16:37:37.328Z,2.35
2023-04-19T16:40:26.902Z,2.33
2023-04-19T16:43:07.484Z,2.10
2023-04-19T16:45:40.413Z,1.95
2023-04-19T16:48:19.156Z,2.28
2023-04-19T16:50:51.878Z,2.08
2023-04-19T16:56:10.756Z,2.40
2023-04-19T16:58:57.402Z,2.10
2023-04-19T17:02:02.273Z,2.28
2023-04-19T17:04:58.084Z,2.15
2023-04-19T17:08:01.317Z,2.40
2023-04-19T17:11:10.949Z,3.50
2023-04-19T17:13:50.691Z,2.42
2023-04-19T17:16:17.273Z,2.17
2023-04-19T17:18:46.356Z,2.05
2023-04-19T17:21:24.501Z,1.83
2023-04-19T17:24:00.485Z,2.00
2023-04-19T17:29:13.222Z,2.15
2023-04-19T17:31:39.808Z,2.45
2023-04-19T17:34:06.357Z,2.38
2023-04-19T17:36:32.951Z,2.10
2023-04-19T17:38:59.626Z,2.17
2023-04-19T17:41:26.074Z,1.92
2023-04-19T17:43:52.521Z,2.60
2023-04-19T17:46:19.340Z,2.20
2023-04-19T17:48:46.193Z,2.95
2023-04-19T17:51:12.662Z,2.72
2023-04-19T17:53:39.505Z,2.40
2023-04-19T17:56:06.052Z,3.97
2023-04-19T17:58:32.544Z,4.22
2023-04-19T18:00:59.228Z,3.58
2023-04-19T18:03:25.899Z,5.28
2023-04-19T18:05:52.689Z,4.25
2023-04-19T18:08:19.173Z,3.75
2023-04-19T18:10:45.812Z,3.80
2023-04-19T18:13:12.316Z,3.20
2023-04-19T18:15:39.382Z,3.30
2023-04-19T18:18:06.085Z,2.78
2023-04-19T18:20:32.586Z,3.10
2023-04-19T18:23:01.115Z,3.38
2023-04-19T18:25:28.975Z,2.45
2023-04-19T18:27:55.758Z,2.50
2023-04-19T18:30:22.293Z,2.70
2023-04-19T18:32:48.853Z,2.78
2023-04-19T18:35:15.357Z,3.20
2023-04-19T18:37:42.005Z,4.03
2023-04-19T18:40:08.957Z,4.38
2023-04-19T18:42:35.466Z,4.88
2023-04-19T18:45:03.807Z,4.30
2023-04-19T18:47:30.586Z,3.00
2023-04-19T18:50:05.327Z,3.00
2023-04-19T18:52:34.524Z,4.30
2023-04-19T18:55:01.093Z,3.30
2023-04-19T18:57:28.128Z,3.40
2023-04-19T18:59:58.020Z,3.45
2023-04-19T19:02:24.782Z,3.15
2023-04-19T19:04:57.988Z,3.40
2023-04-19T19:07:36.314Z,3.83
2023-04-19T19:10:16.812Z,4.53
2023-04-19T19:12:45.551Z,4.75
2023-04-19T19:15:12.047Z,3.60
2023-04-19T19:17:38.695Z,3.33
2023-04-19T19:20:06.829Z,3.95
2023-04-19T19:22:34.132Z,3.45
2023-04-19T19:25:01.110Z,3.00
2023-04-19T19:27:27.704Z,3.58
2023-04-19T19:29:54.186Z,3.40
2023-04-19T19:32:20.934Z,3.42
2023-04-19T19:37:17.536Z,3.60
2023-04-19T19:39:44.926Z,4.22
2023-04-19T19:42:14.215Z,3.78
2023-04-19T19:44:40.794Z,4.95
2023-04-19T19:47:10.319Z,3.58
2023-04-19T19:49:49.502Z,3.78
2023-04-19T19:52:21.633Z,3.92
2023-04-19T19:54:48.246Z,4.20
2023-04-19T19:59:51.304Z,4.03
2023-04-19T20:02:22.242Z,4.82
2023-04-19T20:04:49.239Z,3.95
2023-04-19T20:09:45.550Z,4.07
2023-04-19T20:12:13.557Z,3.65
2023-04-19T20:14:40.396Z,3.92
2023-04-19T20:17:07.018Z,4.45
2023-04-19T20:19:33.963Z,4.65
2023-04-19T20:22:00.559Z,4.63
2023-04-19T20:24:27.150Z,4.07
2023-04-19T20:26:53.621Z,3.80
2023-04-19T20:29:20.298Z,4.22
2023-04-19T20:31:46.919Z,3.50
2023-04-19T20:34:13.486Z,4.13
2023-04-19T20:36:40.467Z,3.22
2023-04-19T20:39:09.660Z,3.15
2023-04-19T20:41:36.411Z,3.00
2023-04-19T20:44:04.421Z,3.10
2023-04-19T20:46:31.153Z,3.67
2023-04-19T20:48:57.648Z,3.30
2023-04-19T20:51:24.099Z,4.28
2023-04-19T20:53:50.686Z,3.72
2023-04-19T20:56:17.156Z,3.45
2023-04-19T20:58:43.729Z,3.15
2023-04-19T21:01:11.599Z,3.72
2023-04-19T21:03:38.334Z,3.42
2023-04-19T21:06:05.458Z,4.22
2023-04-19T21:08:32.012Z,3.50
2023-04-19T21:10:58.521Z,3.75
2023-04-19T21:13:25.031Z,3.20
2023-04-19T21:15:51.675Z,4.60
2023-04-19T21:18:18.160Z,3.75
2023-04-19T21:20:44.736Z,4.30
2023-04-19T21:23:11.315Z,4.10
2023-04-19T21:25:37.808Z,5.00
2023-04-19T21:28:04.284Z,7.38
2023-04-19T21:30:31.567Z,5.20
2023-04-19T21:32:58.074Z,4.53
2023-04-19T21:35:24.741Z,4.40
2023-04-19T21:37:51.283Z,4.28
2023-04-19T21:40:17.728Z,4.28
2023-04-19T21:42:44.181Z,4.95
2023-04-19T21:45:11.262Z,4.03
2023-04-19T21:47:37.860Z,4.15
2023-04-19T21:50:04.663Z,4.47
2023-04-19T21:52:31.313Z,4.47
2023-04-19T21:54:57.795Z,4.30
2023-04-19T21:57:25.139Z,4.28
2023-04-19T21:59:51.674Z,3.80
2023-04-19T22:02:18.289Z,3.65
2023-04-19T22:04:45.592Z,3.65
2023-04-19T22:07:17.889Z,3.30
2023-04-19T22:09:44.523Z,3.70
2023-04-19T22:12:11.664Z,3.83
2023-04-19T22:14:38.559Z,4.32
2023-04-19T22:17:05.239Z,3.80
2023-04-19T22:19:31.750Z,4.22
2023-04-19T22:21:58.359Z,4.25
2023-04-19T22:24:24.813Z,4.43
2023-04-19T22:26:52.893Z,4.28
2023-04-19T22:29:19.654Z,4.22
2023-04-19T22:31:46.487Z,3.90
2023-04-19T22:34:13.062Z,4.43
2023-04-19T22:36:39.551Z,3.70
2023-04-19T22:39:06.085Z,4.20
2023-04-19T22:41:32.936Z,4.82
2023-04-19T22:44:00.213Z,4.78
2023-04-19T22:46:26.952Z,4.85
2023-04-19T22:48:53.471Z,5.05
2023-04-19T22:51:20.184Z,5.10
2023-04-19T22:53:46.661Z,5.13
2023-04-19T22:56:13.172Z,5.18
2023-04-19T22:58:39.677Z,5.07
2023-04-19T23:01:14.899Z,4.40
2023-04-19T23:03:41.434Z,3.90
2023-04-19T23:06:08.029Z,4.40
2023-04-19T23:08:34.981Z,4.57
2023-04-19T23:11:01.480Z,4.07
2023-04-19T23:13:28.110Z,3.83
2023-04-19T23:15:55.111Z,4.60
2023-04-19T23:18:21.704Z,5.10
2023-04-19T23:20:48.216Z,4.38
2023-04-19T23:23:14.704Z,4.63
2023-04-19T23:25:41.255Z,4.65
2023-04-19T23:28:07.734Z,5.05
2023-04-19T23:30:34.430Z,4.85
2023-04-19T23:33:01.202Z,4.95
2023-04-19T23:35:27.659Z,4.85
2023-04-19T23:37:54.130Z,5.30
2023-04-19T23:40:20.739Z,5.07
2023-04-19T23:42:47.271Z,4.30
2023-04-19T23:45:13.718Z,4.43
2023-04-19T23:47:40.457Z,4.55
2023-04-19T23:50:07.527Z,4.47
2023-04-19T23:52:33.977Z,4.50
2023-04-19T23:55:00.478Z,4.50
2023-04-19T23:57:26.934Z,4.75
2023-04-19T23:59:53.414Z,5.28
